Jump to content


SKYWEST AIRLINES FLIGHT OO4663 FLOWN ON 01-06-2018 BY CAPTAIN DEREK ROGY

Pilot StatsCaptain Derek Rogy (LDP86) • 1,600.5 total hours • 835 total flights [View Logbook]
FLIGHT DETAILS
StatusReceived and approved on 2018-01-06 at 15:01:18
Origin AirportSalt Lake City Intl (KSLC) • Salt Lake City, Utah, United States (4,226 feet MSL)
Filed Flight PlanFLIGHT PLANNER OFFLINE
Destination AirportAspen-Pitkin Co-Sardy (KASE) • Aspen, Colorado, United States (7,818 feet MSL)
Alternate AirportNone Filed
AirlineSkywest Airlines
AircraftBombardier CRJ-700 (CR7 / CRJ-700)
FS Aircraft UsedCRJ700ER Delta Airways N367CA
Cruising AltitudeFL330
Distance Flown253 nautical miles
Passengers Onboard35 passengers (50.00% full)
DEPARTURE DETAILS
Time Out11:05:21
Taxi Data61,508 lbs total with 9,141 lbs of fuel onboard
Takeoff Data11:23:25 (18 minutes after leaving gate/ramp) • 66,778 lbs total • 7° pitch at 152 knots
Departure METARKSLC 061754Z 32004KT 4SM -RA SCT045 BKN055 OVC065 02/M02 A3013 RMK AO2 RAB35 SLP212 P0000 60000 T00171017 10017 21006 55004
ARRIVAL DETAILS
Landing Data12:04:26 • 64,136 lbs total • 4° pitch doing 113 knots at a rate of -108.42 feet/minute with 5,951 lbs of fuel onboard
Time In12:07:32 (3 minutes after landing)
Ramp Weight64,036 lbs total
Total Fuel Used3,190 lbs
Total Block Time01:02:10 (1 hour) while 21 minutes were spent on the ground
Arrival METARKASE 061953Z VRB04KT 10SM SCT050 BKN075 OVC085 05/M07 A3012 RMK AO2 SLP170 T00501067
MISCELLANEOUS DETAILS
LiveDISPATCH Version4.8.3.1
FS Version
FSUIPC Version5.12
OS VersionWindows 7 32-bit
Screen Resolution1920 x 1200
Pilot's CommentsNo Comments Reported
FLIGHT MAP